sensor_id;sensor_type;location;lat;lon;timestamp;temperature;humidity
54946;DHT22;40846;44.788;20.486;2024-02-23T00:09:00;333.10;1689.60
54946;DHT22;40846;44.788;20.486;2024-02-23T00:11:26;332.90;1689.60
54946;DHT22;40846;44.788;20.486;2024-02-23T00:13:54;332.80;1689.60
54946;DHT22;40846;44.788;20.486;2024-02-23T00:16:20;332.80;1689.60
54946;DHT22;40846;44.788;20.486;2024-02-23T00:18:45;332.90;1689.60
54946;DHT22;40846;44.788;20.486;2024-02-23T00:21:11;332.80;1689.60
54946;DHT22;40846;44.788;20.486;2024-02-23T00:23:37;332.90;1689.60
54946;DHT22;40846;44.788;20.486;2024-02-23T00:26:03;332.90;1689.60
54946;DHT22;40846;44.788;20.486;2024-02-23T00:28:29;332.90;1689.60
54946;DHT22;40846;44.788;20.486;2024-02-23T00:30:55;332.80;1689.60
54946;DHT22;40846;44.788;20.486;2024-02-23T00:33:20;332.80;1689.60
54946;DHT22;40846;44.788;20.486;2024-02-23T00:35:46;332.90;1689.60
54946;DHT22;40846;44.788;20.486;2024-02-23T00:38:12;332.90;1689.60
54946;DHT22;40846;44.788;20.486;2024-02-23T00:40:38;308.10;1664.00
54946;DHT22;40846;44.788;20.486;2024-02-23T00:43:04;332.90;1689.60
54946;DHT22;40846;44.788;20.486;2024-02-23T00:45:30;332.80;1689.60
54946;DHT22;40846;44.788;20.486;2024-02-23T00:47:56;332.90;1689.60
54946;DHT22;40846;44.788;20.486;2024-02-23T00:50:23;308.10;1664.00
54946;DHT22;40846;44.788;20.486;2024-02-23T00:52:51;332.90;1689.60
54946;DHT22;40846;44.788;20.486;2024-02-23T00:55:18;332.90;1689.60
54946;DHT22;40846;44.788;20.486;2024-02-23T00:57:44;332.90;1689.60
54946;DHT22;40846;44.788;20.486;2024-02-23T01:00:11;332.90;1689.60
54946;DHT22;40846;44.788;20.486;2024-02-23T01:02:38;332.90;1689.60
54946;DHT22;40846;44.788;20.486;2024-02-23T01:05:06;332.90;1689.60
54946;DHT22;40846;44.788;20.486;2024-02-23T01:07:34;332.80;1689.60
54946;DHT22;40846;44.788;20.486;2024-02-23T01:10:00;332.90;1689.60
54946;DHT22;40846;44.788;20.486;2024-02-23T01:12:26;332.90;1689.60
54946;DHT22;40846;44.788;20.486;2024-02-23T01:14:53;332.90;1689.60
54946;DHT22;40846;44.788;20.486;2024-02-23T01:17:19;332.90;1689.60
54946;DHT22;40846;44.788;20.486;2024-02-23T01:19:45;332.80;1689.60
54946;DHT22;40846;44.788;20.486;2024-02-23T01:22:11;308.10;1664.00
54946;DHT22;40846;44.788;20.486;2024-02-23T01:24:36;332.90;1689.60
54946;DHT22;40846;44.788;20.486;2024-02-23T01:27:02;332.80;1689.60
54946;DHT22;40846;44.788;20.486;2024-02-23T01:29:28;332.90;1689.60
54946;DHT22;40846;44.788;20.486;2024-02-23T01:31:54;333.00;1689.60
54946;DHT22;40846;44.788;20.486;2024-02-23T01:34:30;332.90;1689.60
54946;DHT22;40846;44.788;20.486;2024-02-23T01:36:56;332.90;1689.60
54946;DHT22;40846;44.788;20.486;2024-02-23T01:39:22;332.90;1689.60
54946;DHT22;40846;44.788;20.486;2024-02-23T01:41:47;332.80;1689.60
54946;DHT22;40846;44.788;20.486;2024-02-23T01:44:13;332.90;1664.00
54946;DHT22;40846;44.788;20.486;2024-02-23T01:46:41;332.80;1689.60
54946;DHT22;40846;44.788;20.486;2024-02-23T01:49:08;332.80;1664.00
54946;DHT22;40846;44.788;20.486;2024-02-23T01:51:35;332.90;1664.00
54946;DHT22;40846;44.788;20.486;2024-02-23T01:54:01;333.00;1664.00
54946;DHT22;40846;44.788;20.486;2024-02-23T01:56:27;333.00;1664.00
54946;DHT22;40846;44.788;20.486;2024-02-23T01:58:54;332.80;1689.60
54946;DHT22;40846;44.788;20.486;2024-02-23T02:01:21;332.90;1689.60
54946;DHT22;40846;44.788;20.486;2024-02-23T02:03:46;332.90;1664.00
54946;DHT22;40846;44.788;20.486;2024-02-23T02:06:12;332.90;1689.60
54946;DHT22;40846;44.788;20.486;2024-02-23T02:08:38;332.90;1689.60
54946;DHT22;40846;44.788;20.486;2024-02-23T02:11:04;332.90;1664.00
54946;DHT22;40846;44.788;20.486;2024-02-23T02:13:30;332.90;1689.60
54946;DHT22;40846;44.788;20.486;2024-02-23T02:15:58;332.80;1689.60
54946;DHT22;40846;44.788;20.486;2024-02-23T02:18:23;332.90;1689.60
54946;DHT22;40846;44.788;20.486;2024-02-23T02:20:55;332.80;1689.60
54946;DHT22;40846;44.788;20.486;2024-02-23T02:23:22;332.90;1689.60
54946;DHT22;40846;44.788;20.486;2024-02-23T02:25:57;332.90;1664.00
54946;DHT22;40846;44.788;20.486;2024-02-23T02:28:24;332.80;1664.00
54946;DHT22;40846;44.788;20.486;2024-02-23T02:30:51;332.80;1689.60
54946;DHT22;40846;44.788;20.486;2024-02-23T02:33:21;307.90;1664.00
54946;DHT22;40846;44.788;20.486;2024-02-23T02:35:47;332.90;1689.60
54946;DHT22;40846;44.788;20.486;2024-02-23T02:38:12;332.90;1689.60
54946;DHT22;40846;44.788;20.486;2024-02-23T02:40:38;332.80;1689.60
54946;DHT22;40846;44.788;20.486;2024-02-23T02:43:04;332.90;1689.60
54946;DHT22;40846;44.788;20.486;2024-02-23T02:45:31;332.90;1689.60
54946;DHT22;40846;44.788;20.486;2024-02-23T02:47:56;332.90;1689.60
54946;DHT22;40846;44.788;20.486;2024-02-23T02:50:22;332.90;1689.60
54946;DHT22;40846;44.788;20.486;2024-02-23T02:52:48;332.90;1689.60
54946;DHT22;40846;44.788;20.486;2024-02-23T02:55:14;332.90;1689.60
54946;DHT22;40846;44.788;20.486;2024-02-23T02:57:40;333.00;1689.60
54946;DHT22;40846;44.788;20.486;2024-02-23T03:00:09;332.90;1689.60
54946;DHT22;40846;44.788;20.486;2024-02-23T03:02:35;332.80;1689.60
54946;DHT22;40846;44.788;20.486;2024-02-23T03:05:01;332.90;1689.60
54946;DHT22;40846;44.788;20.486;2024-02-23T03:07:26;333.00;1689.60
54946;DHT22;40846;44.788;20.486;2024-02-23T03:09:52;332.90;1715.20
54946;DHT22;40846;44.788;20.486;2024-02-23T03:12:18;333.00;1715.20
54946;DHT22;40846;44.788;20.486;2024-02-23T03:14:44;332.80;1715.20
54946;DHT22;40846;44.788;20.486;2024-02-23T03:17:10;308.10;1689.60
54946;DHT22;40846;44.788;20.486;2024-02-23T03:19:36;332.80;1740.80
54946;DHT22;40846;44.788;20.486;2024-02-23T03:22:03;332.80;1740.80
54946;DHT22;40846;44.788;20.486;2024-02-23T03:24:29;332.80;1740.80
54946;DHT22;40846;44.788;20.486;2024-02-23T03:31:51;332.80;1740.80
54946;DHT22;40846;44.788;20.486;2024-02-23T03:34:16;308.00;1740.80
54946;DHT22;40846;44.788;20.486;2024-02-23T03:44:01;307.90;1740.80
54946;DHT22;40846;44.788;20.486;2024-02-23T03:46:27;307.60;1766.40
54946;DHT22;40846;44.788;20.486;2024-02-23T03:48:53;307.60;1766.40
54946;DHT22;40846;44.788;20.486;2024-02-23T03:51:19;307.60;1766.40
54946;DHT22;40846;44.788;20.486;2024-02-23T03:53:45;307.70;1766.40
54946;DHT22;40846;44.788;20.486;2024-02-23T03:56:10;307.70;1766.40
54946;DHT22;40846;44.788;20.486;2024-02-23T03:58:36;307.70;1766.40
54946;DHT22;40846;44.788;20.486;2024-02-23T04:01:02;307.70;1766.40
54946;DHT22;40846;44.788;20.486;2024-02-23T04:03:28;307.60;1766.40
54946;DHT22;40846;44.788;20.486;2024-02-23T04:05:54;307.70;1766.40
54946;DHT22;40846;44.788;20.486;2024-02-23T04:08:19;307.70;1766.40
54946;DHT22;40846;44.788;20.486;2024-02-23T04:10:45;307.80;1766.40
54946;DHT22;40846;44.788;20.486;2024-02-23T04:13:11;307.90;1766.40
54946;DHT22;40846;44.788;20.486;2024-02-23T04:15:39;307.80;1766.40
54946;DHT22;40846;44.788;20.486;2024-02-23T04:18:06;307.90;1766.40
54946;DHT22;40846;44.788;20.486;2024-02-23T04:20:31;307.80;1766.40
54946;DHT22;40846;44.788;20.486;2024-02-23T04:22:58;308.00;1766.40
54946;DHT22;40846;44.788;20.486;2024-02-23T04:25:24;308.10;1766.40
54946;DHT22;40846;44.788;20.486;2024-02-23T04:27:50;308.10;1766.40
54946;DHT22;40846;44.788;20.486;2024-02-23T04:30:16;308.10;1740.80
54946;DHT22;40846;44.788;20.486;2024-02-23T04:32:41;332.80;1766.40
54946;DHT22;40846;44.788;20.486;2024-02-23T04:35:08;308.10;1766.40
54946;DHT22;40846;44.788;20.486;2024-02-23T04:37:34;332.80;1766.40
54946;DHT22;40846;44.788;20.486;2024-02-23T04:40:00;332.90;1766.40
54946;DHT22;40846;44.788;20.486;2024-02-23T04:42:25;332.90;1766.40
54946;DHT22;40846;44.788;20.486;2024-02-23T04:44:51;332.90;1766.40
54946;DHT22;40846;44.788;20.486;2024-02-23T04:47:20;332.90;1792.00
54946;DHT22;40846;44.788;20.486;2024-02-23T04:49:45;332.90;1766.40
54946;DHT22;40846;44.788;20.486;2024-02-23T04:52:11;332.80;1766.40
54946;DHT22;40846;44.788;20.486;2024-02-23T04:54:37;308.10;1766.40
54946;DHT22;40846;44.788;20.486;2024-02-23T04:57:03;332.80;1792.00
54946;DHT22;40846;44.788;20.486;2024-02-23T04:59:29;332.90;1792.00
54946;DHT22;40846;44.788;20.486;2024-02-23T05:01:57;332.80;1792.00
54946;DHT22;40846;44.788;20.486;2024-02-23T05:04:23;308.10;1766.40
54946;DHT22;40846;44.788;20.486;2024-02-23T05:06:48;332.80;1792.00
54946;DHT22;40846;44.788;20.486;2024-02-23T05:09:14;308.10;1766.40
54946;DHT22;40846;44.788;20.486;2024-02-23T05:11:40;332.80;1792.00
54946;DHT22;40846;44.788;20.486;2024-02-23T05:14:06;332.80;1792.00
54946;DHT22;40846;44.788;20.486;2024-02-23T05:16:32;332.80;1792.00
54946;DHT22;40846;44.788;20.486;2024-02-23T05:18:58;332.80;1817.60
54946;DHT22;40846;44.788;20.486;2024-02-23T05:21:23;332.80;1817.60
54946;DHT22;40846;44.788;20.486;2024-02-23T05:23:51;308.00;1792.00
54946;DHT22;40846;44.788;20.486;2024-02-23T05:26:17;308.10;1792.00
54946;DHT22;40846;44.788;20.486;2024-02-23T05:28:44;308.00;1792.00
54946;DHT22;40846;44.788;20.486;2024-02-23T05:31:10;308.10;1766.40
54946;DHT22;40846;44.788;20.486;2024-02-23T05:33:35;308.00;1792.00
54946;DHT22;40846;44.788;20.486;2024-02-23T05:36:04;308.00;1792.00
54946;DHT22;40846;44.788;20.486;2024-02-23T05:38:29;308.00;1792.00
54946;DHT22;40846;44.788;20.486;2024-02-23T05:40:56;308.00;1792.00
54946;DHT22;40846;44.788;20.486;2024-02-23T05:43:21;308.00;1792.00
54946;DHT22;40846;44.788;20.486;2024-02-23T05:45:48;308.00;1792.00
54946;DHT22;40846;44.788;20.486;2024-02-23T05:48:13;307.90;1792.00
54946;DHT22;40846;44.788;20.486;2024-02-23T05:50:39;307.90;1792.00
54946;DHT22;40846;44.788;20.486;2024-02-23T05:53:05;307.90;1792.00
54946;DHT22;40846;44.788;20.486;2024-02-23T05:55:31;307.90;1792.00
54946;DHT22;40846;44.788;20.486;2024-02-23T05:57:57;307.90;1792.00
54946;DHT22;40846;44.788;20.486;2024-02-23T06:00:22;308.00;1792.00
54946;DHT22;40846;44.788;20.486;2024-02-23T06:02:48;307.90;1792.00
54946;DHT22;40846;44.788;20.486;2024-02-23T06:05:14;308.00;1792.00
54946;DHT22;40846;44.788;20.486;2024-02-23T06:07:41;308.00;1817.60
54946;DHT22;40846;44.788;20.486;2024-02-23T06:10:07;307.90;1792.00
54946;DHT22;40846;44.788;20.486;2024-02-23T06:12:33;308.00;1792.00
54946;DHT22;40846;44.788;20.486;2024-02-23T06:14:59;308.00;1792.00
54946;DHT22;40846;44.788;20.486;2024-02-23T06:17:25;308.00;1792.00
54946;DHT22;40846;44.788;20.486;2024-02-23T06:19:51;308.00;1792.00
54946;DHT22;40846;44.788;20.486;2024-02-23T06:22:18;308.10;1792.00
54946;DHT22;40846;44.788;20.486;2024-02-23T06:24:47;308.00;1792.00
54946;DHT22;40846;44.788;20.486;2024-02-23T06:27:13;308.00;1792.00
54946;DHT22;40846;44.788;20.486;2024-02-23T06:29:39;308.10;1792.00
54946;DHT22;40846;44.788;20.486;2024-02-23T06:32:05;332.90;1817.60
54946;DHT22;40846;44.788;20.486;2024-02-23T06:34:31;332.80;1817.60
54946;DHT22;40846;44.788;20.486;2024-02-23T06:36:57;332.80;1817.60
54946;DHT22;40846;44.788;20.486;2024-02-23T06:39:23;332.90;1843.20
54946;DHT22;40846;44.788;20.486;2024-02-23T06:41:49;332.80;1843.20
54946;DHT22;40846;44.788;20.486;2024-02-23T06:44:15;332.90;1843.20
54946;DHT22;40846;44.788;20.486;2024-02-23T06:46:40;332.90;1868.80
54946;DHT22;40846;44.788;20.486;2024-02-23T06:49:07;333.00;1868.80
54946;DHT22;40846;44.788;20.486;2024-02-23T06:51:33;332.90;1894.40
54946;DHT22;40846;44.788;20.486;2024-02-23T06:53:59;332.90;1894.40
54946;DHT22;40846;44.788;20.486;2024-02-23T06:56:30;332.90;1920.00
54946;DHT22;40846;44.788;20.486;2024-02-23T06:58:56;332.80;1920.00
54946;DHT22;40846;44.788;20.486;2024-02-23T07:01:22;332.90;1920.00
54946;DHT22;40846;44.788;20.486;2024-02-23T07:03:48;332.90;1920.00
54946;DHT22;40846;44.788;20.486;2024-02-23T07:06:25;332.80;1920.00
54946;DHT22;40846;44.788;20.486;2024-02-23T07:08:55;333.00;1894.40
54946;DHT22;40846;44.788;20.486;2024-02-23T07:11:21;333.10;1920.00
54946;DHT22;40846;44.788;20.486;2024-02-23T07:13:47;333.20;1894.40
54946;DHT22;40846;44.788;20.486;2024-02-23T07:18:40;333.50;1868.80
54946;DHT22;40846;44.788;20.486;2024-02-23T07:21:07;333.50;2329.60
54946;DHT22;40846;44.788;20.486;2024-02-23T07:23:32;333.30;1894.40
54946;DHT22;40846;44.788;20.486;2024-02-23T07:25:58;333.30;1868.80
54946;DHT22;40846;44.788;20.486;2024-02-23T07:28:24;333.30;1868.80
